Time;durP1;ratioP1;P1;durP2;ratioP2;P2;SDS_P1;SDS_P2;PMS_P1;PMS_P2;Temp;Humidity;BMP_temperature;BMP_pressure;BME280_temperature;BME280_humidity;BME280_pressure;Samples;Min_cycle;Max_cycle;Signal;HPM_P1;HPM_P2
2021/08/14 00:00:37;;;;;;;13.85;5.15;;;;;;;27.81;55.85;100917.72;5114741;28;20043;-70
2021/08/14 00:03:05;;;;;;;17.35;5.13;;;;;;;27.76;55.96;100910.69;5114811;27;20105;-69
2021/08/14 00:05:32;;;;;;;16.73;5.47;;;;;;;27.73;55.88;100910.84;5114945;27;20031;-70
2021/08/14 00:08:00;;;;;;;15.18;5.00;;;;;;;27.73;56.15;100905.44;5114561;27;20042;-69
2021/08/14 00:10:27;;;;;;;16.60;5.82;;;;;;;27.75;56.12;100905.34;5115433;28;20047;-70
2021/08/14 00:12:55;;;;;;;22.67;5.47;;;;;;;27.69;56.68;100906.56;5114822;28;20039;-70
2021/08/14 00:15:24;;;;;;;18.17;5.97;;;;;;;27.65;56.91;100898.66;5114701;28;20040;-71
2021/08/14 00:17:51;;;;;;;13.30;5.53;;;;;;;27.66;56.70;100904.00;5114923;27;20048;-70
2021/08/14 00:20:39;;;;;;;14.23;5.35;;;;;;;27.64;56.71;100905.91;5110836;28;20039;-70
2021/08/14 00:23:06;;;;;;;16.75;6.20;;;;;;;27.62;56.89;100902.41;5114764;27;20052;-70
2021/08/14 00:25:34;;;;;;;19.40;6.30;;;;;;;27.61;57.03;100906.09;5114692;28;20039;-70
2021/08/14 00:28:01;;;;;;;18.33;5.65;;;;;;;27.63;56.71;100912.31;5108619;27;20497;-69
2021/08/14 00:30:45;;;;;;;16.70;5.57;;;;;;;27.55;56.91;100916.38;5123096;27;20054;-70
2021/08/14 00:33:13;;;;;;;14.05;5.90;;;;;;;27.51;57.25;100914.72;5114740;28;20044;-70
2021/08/14 00:35:42;;;;;;;16.65;5.75;;;;;;;27.49;57.13;100912.13;5114354;28;20507;-70
2021/08/14 00:38:10;;;;;;;18.38;5.90;;;;;;;27.57;56.93;100912.59;5114226;28;20036;-70
2021/08/14 00:40:37;;;;;;;13.85;5.45;;;;;;;27.50;57.28;100916.59;5114278;28;20039;-70
2021/08/14 00:43:04;;;;;;;16.70;6.15;;;;;;;27.45;57.26;100921.34;5114024;27;20511;-70
2021/08/14 00:45:46;;;;;;;13.07;5.28;;;;;;;27.42;57.56;100912.50;5113487;28;20058;-70
2021/08/14 00:48:13;;;;;;;16.00;5.90;;;;;;;27.48;57.32;100909.47;5114151;27;20095;-70
2021/08/14 00:50:41;;;;;;;14.45;6.07;;;;;;;27.40;57.49;100911.72;5113973;28;20042;-70
2021/08/14 00:53:08;;;;;;;15.88;5.53;;;;;;;27.37;57.74;100908.19;5113696;28;20051;-71
2021/08/14 00:55:36;;;;;;;14.98;4.95;;;;;;;27.45;57.57;100912.34;5113734;28;20050;-71
2021/08/14 00:58:04;;;;;;;17.60;5.82;;;;;;;27.42;57.59;100910.69;5113751;27;20051;-69
2021/08/14 01:00:31;;;;;;;16.77;5.35;;;;;;;27.48;57.67;100914.91;5113459;27;20040;-69
2021/08/14 01:03:00;;;;;;;19.85;5.70;;;;;;;27.48;57.65;100918.50;5113445;28;20047;-70
2021/08/14 01:05:28;;;;;;;14.75;5.30;;;;;;;27.48;57.25;100921.22;5113605;27;20036;-70
2021/08/14 01:07:55;;;;;;;13.25;5.25;;;;;;;27.44;57.53;100914.16;5113754;27;20044;-70
2021/08/14 01:10:23;;;;;;;16.05;5.40;;;;;;;27.44;57.55;100924.16;5113458;27;20035;-70
2021/08/14 01:12:51;;;;;;;15.65;5.53;;;;;;;27.43;57.71;100923.28;5110766;27;20042;-70
2021/08/14 01:15:19;;;;;;;19.08;5.70;;;;;;;27.42;57.81;100920.66;5113742;27;20051;-70
2021/08/14 01:17:46;;;;;;;16.67;5.72;;;;;;;27.32;58.37;100926.53;5113601;28;20031;-70
2021/08/14 01:20:16;;;;;;;17.45;6.00;;;;;;;27.35;58.31;100917.38;5112002;28;20048;-71
2021/08/14 01:22:43;;;;;;;15.52;5.40;;;;;;;27.35;58.53;100928.22;5113478;28;20102;-70
2021/08/14 01:25:12;;;;;;;14.23;5.07;;;;;;;27.37;58.37;100929.03;5112386;28;20047;-70
2021/08/14 01:27:46;;;;;;;;;;;;;;;27.35;58.00;100920.09;5112930;27;20039;-71
2021/08/14 01:30:14;;;;;;;18.77;6.10;;;;;;;27.35;57.96;100920.09;5113145;27;19926;-70
2021/08/14 01:32:42;;;;;;;15.85;6.45;;;;;;;27.26;58.25;100921.44;5113322;28;20027;-70
2021/08/14 01:35:10;;;;;;;13.98;4.90;;;;;;;27.17;58.51;100924.63;5110911;28;20039;-70
2021/08/14 01:37:38;;;;;;;17.42;5.53;;;;;;;27.19;58.63;100935.38;5113100;28;20032;-70
2021/08/14 01:40:07;;;;;;;16.35;5.18;;;;;;;27.23;58.20;100931.56;5112774;27;20426;-70
2021/08/14 01:42:34;;;;;;;15.95;5.38;;;;;;;27.24;58.46;100936.88;5113192;27;20387;-70
2021/08/14 01:45:04;;;;;;;18.88;5.68;;;;;;;27.28;58.49;100926.78;5113192;27;20507;-69
2021/08/14 01:47:52;;;;;;;14.35;5.43;;;;;;;27.27;58.29;100934.03;5110812;28;20062;-69
2021/08/14 01:50:19;;;;;;;16.90;5.80;;;;;;;27.26;58.58;100934.09;5112622;28;20047;-70
2021/08/14 01:52:47;;;;;;;19.15;5.30;;;;;;;27.21;58.87;100933.47;5112646;27;20048;-70
2021/08/14 01:55:14;;;;;;;14.95;5.60;;;;;;;27.21;58.89;100930.75;5112868;28;20051;-70
2021/08/14 01:57:42;;;;;;;15.10;5.05;;;;;;;27.22;58.90;100932.50;5112517;28;20506;-70
2021/08/14 02:00:12;;;;;;;11.98;5.22;;;;;;;27.20;58.85;100929.00;5111784;27;20435;-69
2021/08/14 02:02:40;;;;;;;16.38;5.45;;;;;;;27.16;59.03;100927.41;5112327;28;20399;-70
2021/08/14 02:05:08;;;;;;;14.45;5.07;;;;;;;27.08;59.50;100929.63;5112606;28;20040;-69
2021/08/14 02:07:36;;;;;;;15.70;5.65;;;;;;;27.08;60.04;100927.78;5112507;28;20398;-70
2021/08/14 02:10:06;;;;;;;15.20;5.68;;;;;;;27.13;59.54;100930.25;5111835;28;20503;-70
2021/08/14 02:12:33;;;;;;;14.38;6.25;;;;;;;27.13;59.52;100927.53;5112577;27;20058;-69
2021/08/14 02:15:00;;;;;;;16.20;5.57;;;;;;;27.10;59.82;100935.84;5112837;28;20056;-68
2021/08/14 02:17:46;;;;;;;14.50;5.10;;;;;;;27.10;59.42;100930.44;5111819;28;20039;-70
2021/08/14 02:20:15;;;;;;;18.20;6.40;;;;;;;27.07;59.52;100928.72;5112478;28;20047;-70
2021/08/14 02:22:42;;;;;;;19.10;5.35;;;;;;;27.07;59.68;100936.88;5112153;27;20031;-70
2021/08/14 02:25:10;;;;;;;19.48;5.55;;;;;;;27.09;59.59;100936.78;5112218;28;20039;-70
2021/08/14 02:27:38;;;;;;;12.88;5.20;;;;;;;27.05;59.57;100929.75;5112420;28;20479;-70
2021/08/14 02:30:07;;;;;;;15.98;6.63;;;;;;;27.03;59.77;100939.81;5111915;28;20533;-70
2021/08/14 02:32:57;;;;;;;21.67;5.47;;;;;;;26.97;59.55;100943.72;5101573;27;20407;-70
2021/08/14 02:35:24;;;;;;;21.52;5.53;;;;;;;26.97;59.66;100943.72;5111513;28;20035;-70
2021/08/14 02:37:51;;;;;;;15.00;6.10;;;;;;;26.94;59.51;100942.03;5111584;28;20047;-70
2021/08/14 02:40:19;;;;;;;17.85;5.88;;;;;;;26.93;59.74;100942.09;5111771;28;20031;-70
2021/08/14 02:42:46;;;;;;;13.75;5.60;;;;;;;26.92;59.68;100935.78;5111660;28;20031;-70
2021/08/14 02:45:14;;;;;;;15.02;5.93;;;;;;;26.89;59.62;100941.38;5111687;28;20058;-70
2021/08/14 02:47:42;;;;;;;16.20;5.05;;;;;;;26.87;59.75;100945.94;5111386;28;20032;-70
2021/08/14 02:50:11;;;;;;;16.65;5.75;;;;;;;26.85;59.68;100945.13;5111562;28;20051;-70
2021/08/14 02:52:39;;;;;;;22.38;6.10;;;;;;;26.82;59.64;100949.84;5111637;28;20039;-70
2021/08/14 02:55:07;;;;;;;15.55;5.50;;;;;;;26.77;59.86;100950.06;5111872;28;20050;-70
2021/08/14 02:57:34;;;;;;;17.08;5.13;;;;;;;26.73;59.58;100948.44;5111552;28;20043;-69
2021/08/14 03:00:02;;;;;;;15.98;5.40;;;;;;;26.75;59.42;100951.97;5111414;28;20040;-69
2021/08/14 03:02:29;;;;;;;22.52;6.20;;;;;;;26.78;59.25;100953.66;5111638;28;20050;-71
2021/08/14 03:04:56;;;;;;;17.23;5.65;;;;;;;26.80;59.00;100952.63;5112192;28;20044;-70
2021/08/14 03:07:25;;;;;;;18.02;6.10;;;;;;;26.79;59.12;100942.72;5111457;28;20048;-71
2021/08/14 03:09:52;;;;;;;17.67;6.93;;;;;;;26.75;59.10;100940.25;5111736;28;20040;-70
2021/08/14 03:12:21;;;;;;;19.65;6.43;;;;;;;26.64;59.02;100934.47;5111770;28;20052;-69
2021/08/14 03:15:11;;;;;;;12.65;4.97;;;;;;;26.64;58.96;100937.19;5107225;28;20035;-69
2021/08/14 03:17:39;;;;;;;13.48;5.45;;;;;;;26.63;58.98;100940.84;5111741;28;20031;-70
2021/08/14 03:20:08;;;;;;;11.82;4.93;;;;;;;26.64;58.87;100939.91;5111055;28;20043;-70
2021/08/14 03:22:37;;;;;;;15.07;6.07;;;;;;;26.63;58.69;100944.44;5111620;28;20043;-70
2021/08/14 03:25:04;;;;;;;16.45;5.40;;;;;;;26.60;58.51;100947.28;5111293;28;20052;-69
2021/08/14 03:27:32;;;;;;;16.15;5.80;;;;;;;26.58;58.83;100950.06;5111156;28;20054;-69
2021/08/14 03:29:59;;;;;;;18.25;5.45;;;;;;;26.58;58.73;100949.19;5111740;28;20046;-70
2021/08/14 03:32:27;;;;;;;15.73;5.60;;;;;;;26.56;58.67;100954.69;5111816;28;20050;-70
2021/08/14 03:34:54;;;;;;;15.70;5.38;;;;;;;26.62;58.67;100950.81;5111137;28;20483;-70
2021/08/14 03:37:22;;;;;;;16.48;5.47;;;;;;;26.56;58.67;100948.38;5111182;28;20039;-70
2021/08/14 03:39:51;;;;;;;19.38;5.20;;;;;;;26.56;58.59;100951.97;5108766;28;20040;-70
2021/08/14 03:42:18;;;;;;;12.10;5.30;;;;;;;26.59;58.36;100951.81;5111281;28;20047;-70
2021/08/14 03:44:45;;;;;;;17.23;5.70;;;;;;;26.62;57.63;100956.22;5114584;28;20502;-70
2021/08/14 03:47:13;;;;;;;14.10;5.60;;;;;;;26.64;57.50;100953.44;5115220;28;20048;-69
2021/08/14 03:49:40;;;;;;;10.88;5.32;;;;;;;26.68;57.13;100958.63;5114824;28;20423;-70
2021/08/14 03:52:08;;;;;;;18.38;5.55;;;;;;;26.72;56.94;100959.34;5114850;28;20040;-70
2021/08/14 03:54:35;;;;;;;15.82;5.47;;;;;;;26.78;56.91;100970.78;5112694;28;20043;-69
2021/08/14 03:57:04;;;;;;;14.95;4.72;;;;;;;26.87;56.57;100972.16;5115155;28;20416;-69
2021/08/14 03:59:32;;;;;;;15.85;4.68;;;;;;;26.92;56.46;100971.00;5114340;27;20063;-69
2021/08/14 04:01:59;;;;;;;12.20;5.55;;;;;;;26.95;56.50;100976.31;5114767;28;20032;-70
2021/08/14 04:04:26;;;;;;;12.88;4.90;;;;;;;27.08;56.65;100973.88;5114945;28;20048;-70
2021/08/14 04:06:54;;;;;;;12.88;5.07;;;;;;;27.21;56.39;100977.72;5114639;27;20046;-70
2021/08/14 04:09:21;;;;;;;11.98;5.22;;;;;;;27.33;56.14;100974.41;5112942;28;20648;-70
2021/08/14 04:11:48;;;;;;;15.63;5.43;;;;;;;27.48;55.88;100977.28;5114360;28;20383;-70
2021/08/14 04:14:17;;;;;;;17.80;4.90;;;;;;;27.59;55.57;100978.53;5114724;28;20036;-71
2021/08/14 04:17:00;;;;;;;16.95;5.10;;;;;;;27.59;55.47;100978.53;5114190;28;20051;-67
2021/08/14 04:19:29;;;;;;;14.80;5.68;;;;;;;27.67;55.53;100976.31;5114606;27;20499;-70
2021/08/14 04:21:56;;;;;;;15.63;5.20;;;;;;;27.72;55.17;100985.06;5114669;27;20046;-70
2021/08/14 04:24:23;;;;;;;12.38;4.28;;;;;;;27.86;54.88;100986.19;5114518;28;20475;-70
2021/08/14 04:27:00;;;;;;;15.68;4.70;;;;;;;28.02;53.82;100988.03;5114188;27;20054;-66
2021/08/14 04:29:29;;;;;;;16.98;4.88;;;;;;;28.22;53.84;100988.84;5115024;28;20047;-70
2021/08/14 04:31:57;;;;;;;11.80;4.80;;;;;;;28.40;53.36;100994.13;5114625;27;20067;-70
2021/08/14 04:34:25;;;;;;;15.85;4.60;;;;;;;28.53;52.94;101000.66;5114558;27;20046;-70
2021/08/14 04:37:13;;;;;;;11.88;4.45;;;;;;;28.72;52.67;100988.75;5111296;28;20040;-70
2021/08/14 04:39:40;;;;;;;14.50;5.25;;;;;;;28.87;52.40;100999.69;5113863;28;20046;-71
2021/08/14 04:42:08;;;;;;;14.20;4.25;;;;;;;28.98;51.92;101000.91;5113832;28;20131;-71
2021/08/14 04:44:37;;;;;;;10.90;3.90;;;;;;;29.15;51.56;101001.69;5114092;28;20035;-70
2021/08/14 04:47:05;;;;;;;14.75;4.28;;;;;;;29.32;50.90;100998.88;5114407;27;20051;-69
2021/08/14 04:49:32;;;;;;;16.05;4.75;;;;;;;29.49;50.34;101000.63;5114309;27;20046;-69
2021/08/14 04:52:00;;;;;;;14.43;4.15;;;;;;;29.53;49.38;100996.78;5114713;27;20035;-70
2021/08/14 04:54:27;;;;;;;12.75;4.13;;;;;;;29.64;49.10;100999.72;5112995;28;20416;-70
2021/08/14 04:56:54;;;;;;;13.23;4.25;;;;;;;29.73;49.08;101004.59;5113892;27;20039;-70
2021/08/14 04:59:22;;;;;;;12.93;3.80;;;;;;;29.90;49.18;101002.72;5113418;28;20044;-70
2021/08/14 05:01:51;;;;;;;17.13;4.65;;;;;;;30.13;48.64;101006.81;5112207;28;20511;-71
2021/08/14 05:04:19;;;;;;;14.77;4.55;;;;;;;30.29;48.33;101002.13;5113777;28;20507;-70
2021/08/14 05:06:46;;;;;;;15.48;4.68;;;;;;;30.47;47.47;101001.84;5113058;28;20122;-70
2021/08/14 05:09:13;;;;;;;13.40;4.18;;;;;;;30.65;46.58;101008.03;5113425;28;20055;-70
2021/08/14 05:11:40;;;;;;;13.13;4.18;;;;;;;30.77;46.01;101003.63;5112601;28;20471;-70
2021/08/14 05:14:08;;;;;;;11.90;4.13;;;;;;;30.89;45.00;101003.72;5113537;28;20118;-71
2021/08/14 05:16:36;;;;;;;11.18;4.18;;;;;;;31.08;44.35;101002.53;5113555;27;20047;-70
2021/08/14 05:19:45;;;;;;;13.70;4.13;;;;;;;31.25;44.09;100997.69;5110819;27;20082;-70
2021/08/14 05:22:12;;;;;;;11.18;4.25;;;;;;;31.41;43.60;101007.59;5113326;27;20048;-71
2021/08/14 05:24:40;;;;;;;12.02;4.40;;;;;;;31.60;43.17;101005.41;5112626;27;20035;-70
2021/08/14 05:27:07;;;;;;;13.93;4.43;;;;;;;31.74;42.55;101007.19;5113235;28;20044;-71
2021/08/14 05:29:34;;;;;;;15.32;4.20;;;;;;;31.85;42.73;101010.03;5113241;28;20040;-69
2021/08/14 05:32:08;;;;;;;12.70;3.88;;;;;;;32.11;42.20;101008.22;5112954;28;20105;-70
2021/08/14 05:34:36;;;;;;;13.00;4.05;;;;;;;32.36;41.55;101003.69;5112728;28;20478;-71
2021/08/14 05:37:05;;;;;;;12.63;3.70;;;;;;;32.55;41.53;100999.66;5112844;27;20039;-70
2021/08/14 05:39:32;;;;;;;11.77;4.05;;;;;;;32.67;40.42;101002.41;5112944;27;20039;-70
2021/08/14 05:41:59;;;;;;;13.00;3.67;;;;;;;32.75;40.17;101004.56;5113257;28;20043;-69
2021/08/14 05:44:27;;;;;;;14.40;4.00;;;;;;;32.77;40.49;101011.66;5113032;27;20051;-70
2021/08/14 05:46:54;;;;;;;14.43;4.30;;;;;;;32.87;40.05;101021.94;5112734;27;20047;-70
2021/08/14 05:49:21;;;;;;;14.00;4.07;;;;;;;33.08;40.14;101010.25;5112679;28;20056;-70
2021/08/14 05:51:48;;;;;;;12.68;4.07;;;;;;;33.11;39.37;101017.38;5112441;27;20040;-71
2021/08/14 05:54:18;;;;;;;11.57;3.78;;;;;;;33.31;39.60;101018.66;5113159;27;20039;-70
2021/08/14 05:56:46;;;;;;;12.90;4.00;;;;;;;33.60;39.25;101025.56;5111411;28;20044;-71
2021/08/14 05:59:16;;;;;;;15.18;4.30;;;;;;;33.83;38.51;101016.47;5112273;28;20044;-70
2021/08/14 06:01:44;;;;;;;15.25;4.00;;;;;;;34.01;38.23;101020.50;5112289;28;20032;-70
2021/08/14 06:04:11;;;;;;;17.55;4.22;;;;;;;33.96;37.84;101024.59;5112613;28;20051;-70
2021/08/14 06:06:43;;;;;;;11.43;4.18;;;;;;;34.05;37.80;101017.53;5112341;28;20051;-69
2021/08/14 06:09:10;;;;;;;11.40;3.58;;;;;;;34.10;37.70;101029.00;5112839;28;20062;-70
2021/08/14 06:11:40;;;;;;;16.40;4.32;;;;;;;34.04;37.60;101021.25;5112854;28;20047;-70
2021/08/14 06:14:07;;;;;;;9.73;3.58;;;;;;;34.07;37.38;101010.06;5112509;27;20498;-70
2021/08/14 06:16:35;;;;;;;13.73;3.80;;;;;;;33.69;38.05;101027.56;5112561;27;20369;-69
2021/08/14 06:19:22;;;;;;;16.63;3.67;;;;;;;33.42;39.29;101021.47;5109153;28;20506;-70
2021/08/14 06:21:50;;;;;;;12.95;3.85;;;;;;;33.01;39.90;101014.47;5112161;28;20050;-70
2021/08/14 06:24:17;;;;;;;16.65;4.15;;;;;;;33.27;39.75;101028.13;5111736;28;20051;-71
2021/08/14 06:26:47;;;;;;;13.18;4.20;;;;;;;33.51;39.48;101026.25;5110861;28;20399;-71
2021/08/14 06:29:14;;;;;;;11.88;4.30;;;;;;;33.95;39.14;101031.06;5111944;28;20127;-70
2021/08/14 06:31:42;;;;;;;14.80;4.15;;;;;;;34.12;38.35;101027.03;5112119;28;20440;-70
2021/08/14 06:34:29;;;;;;;13.90;3.90;;;;;;;34.32;38.18;101034.59;5107256;28;20046;-70
2021/08/14 06:36:57;;;;;;;10.98;3.85;;;;;;;34.52;38.00;101031.13;5112382;28;20048;-70
2021/08/14 06:39:24;;;;;;;14.23;3.75;;;;;;;34.46;37.33;101031.63;5110438;28;20478;-70
2021/08/14 06:41:53;;;;;;;16.00;4.03;;;;;;;34.11;37.66;101036.25;5112010;28;20062;-70
2021/08/14 06:44:20;;;;;;;12.93;3.75;;;;;;;34.33;37.23;101042.66;5111688;28;20040;-70
2021/08/14 06:46:48;;;;;;;11.30;3.20;;;;;;;34.57;36.88;101044.47;5111920;28;20059;-70
2021/08/14 06:49:16;;;;;;;9.60;3.63;;;;;;;34.74;36.44;101035.75;5112141;28;20044;-70
2021/08/14 06:51:43;;;;;;;12.43;3.22;;;;;;;34.81;35.63;101033.41;5111933;28;20040;-70
2021/08/14 06:54:10;;;;;;;14.05;3.38;;;;;;;34.92;35.29;101041.66;5111970;28;20495;-70
2021/08/14 06:56:38;;;;;;;9.55;3.28;;;;;;;34.91;35.13;101043.50;5110393;28;20050;-70
2021/08/14 06:59:07;;;;;;;16.20;3.58;;;;;;;35.08;35.31;101032.00;5111870;28;20395;-70
2021/08/14 07:01:34;;;;;;;9.95;3.40;;;;;;;35.16;34.60;101037.75;5111310;28;20035;-69
2021/08/14 07:04:16;;;;;;;12.07;3.45;;;;;;;35.13;34.19;101032.50;5111128;28;20046;-70
2021/08/14 07:06:44;;;;;;;13.88;3.13;;;;;;;35.04;34.40;101040.63;5110879;28;20040;-69
2021/08/14 07:09:11;;;;;;;9.55;3.10;;;;;;;35.22;33.95;101036.38;5111394;28;20043;-70
2021/08/14 07:11:38;;;;;;;12.40;3.25;;;;;;;35.36;33.97;101041.59;5111595;28;20044;-72
2021/08/14 07:14:07;;;;;;;11.10;2.92;;;;;;;35.56;33.32;101040.81;5111318;28;20563;-70
2021/08/14 07:16:35;;;;;;;11.95;3.03;;;;;;;35.70;33.05;101041.53;5110659;28;20044;-70
2021/08/14 07:19:02;;;;;;;9.98;3.40;;;;;;;35.93;32.43;101041.28;5113763;27;20044;-70
2021/08/14 07:21:30;;;;;;;11.43;2.80;;;;;;;36.01;32.36;101037.88;5116010;28;20040;-70
2021/08/14 07:23:58;;;;;;;11.38;3.25;;;;;;;35.94;32.06;101033.91;5113419;28;20115;-70
2021/08/14 07:26:25;;;;;;;12.93;3.15;;;;;;;36.02;31.96;101047.00;5115706;28;20039;-73
2021/08/14 07:28:53;;;;;;;12.10;3.17;;;;;;;36.09;31.92;101043.59;5115808;28;20040;-72
2021/08/14 07:31:22;;;;;;;10.75;2.92;;;;;;;35.96;32.07;101040.16;5114466;28;20046;-73
2021/08/14 07:33:49;;;;;;;11.63;3.05;;;;;;;35.98;31.60;101046.38;5115734;28;20050;-72
2021/08/14 07:36:17;;;;;;;9.23;3.05;;;;;;;35.96;31.53;101040.16;5115576;27;20051;-71
2021/08/14 07:38:45;;;;;;;10.73;2.90;;;;;;;35.95;31.18;101047.53;5115186;28;20051;-72
2021/08/14 07:41:12;;;;;;;8.98;2.67;;;;;;;35.84;31.75;101047.56;5114864;28;20071;-72
2021/08/14 07:43:39;;;;;;;9.80;3.20;;;;;;;36.02;31.63;101053.38;5114891;27;20467;-72
2021/08/14 07:46:09;;;;;;;12.65;3.75;;;;;;;36.10;31.35;101049.97;5115102;27;20047;-72
2021/08/14 07:48:40;;;;;;;12.13;3.15;;;;;;;36.01;31.84;101072.75;5114961;27;20051;-72
2021/08/14 07:51:28;;;;;;;10.23;3.17;;;;;;;36.01;30.95;101073.63;5111039;28;20118;-71
2021/08/14 07:53:56;;;;;;;12.32;3.35;;;;;;;35.99;30.76;101059.13;5115171;27;20411;-71
2021/08/14 07:56:24;;;;;;;9.05;3.03;;;;;;;36.02;30.68;101074.50;5114906;27;20044;-72
2021/08/14 07:58:51;;;;;;;10.65;2.97;;;;;;;36.04;30.68;101073.34;5113541;28;21068;-71
2021/08/14 08:01:19;;;;;;;8.88;3.08;;;;;;;36.07;30.99;101072.22;5114229;28;20048;-71
2021/08/14 08:03:48;;;;;;;10.85;3.47;;;;;;;36.25;31.16;101074.28;5112822;28;20039;-71
2021/08/14 08:06:15;;;;;;;11.70;3.00;;;;;;;36.33;31.34;101068.97;5114503;28;20047;-71
2021/08/14 08:08:43;;;;;;;10.82;3.15;;;;;;;36.31;30.92;101070.13;5114458;28;20039;-71
2021/08/14 08:11:10;;;;;;;8.25;2.53;;;;;;;36.34;30.14;101075.38;5113934;28;20043;-71
2021/08/14 08:13:38;;;;;;;8.10;2.70;;;;;;;36.30;29.46;101062.91;5114446;27;20407;-71
2021/08/14 08:16:05;;;;;;;9.73;3.03;;;;;;;36.19;29.92;101069.31;5114410;28;20130;-71
2021/08/14 08:18:33;;;;;;;10.73;2.53;;;;;;;36.25;29.64;101066.03;5114695;28;20483;-71
2021/08/14 08:21:02;;;;;;;7.10;2.53;;;;;;;36.26;29.21;101084.28;5112692;27;20468;-73
2021/08/14 08:23:29;;;;;;;8.90;2.58;;;;;;;36.23;28.34;101087.31;5114693;28;20381;-72
2021/08/14 08:25:57;;;;;;;8.77;3.13;;;;;;;36.11;28.51;101085.56;5114513;27;20051;-72
2021/08/14 08:28:24;;;;;;;9.52;2.97;;;;;;;36.11;28.48;101062.69;5114330;27;20050;-72
2021/08/14 08:30:52;;;;;;;6.85;2.35;;;;;;;36.10;28.21;101083.84;5114339;28;20036;-71
2021/08/14 08:33:19;;;;;;;6.10;2.42;;;;;;;36.24;27.74;101079.91;5114697;27;20050;-72
2021/08/14 08:35:47;;;;;;;8.95;2.85;;;;;;;36.26;28.08;101083.41;5114359;28;20040;-73
2021/08/14 08:38:16;;;;;;;8.10;2.88;;;;;;;36.05;28.48;101085.22;5114096;27;20055;-71
2021/08/14 08:40:44;;;;;;;9.40;2.97;;;;;;;36.12;28.91;101087.31;5113674;28;20509;-71
2021/08/14 08:43:12;;;;;;;9.45;2.67;;;;;;;36.26;28.51;101092.53;5112849;28;20046;-71
2021/08/14 08:45:39;;;;;;;9.48;3.05;;;;;;;36.27;28.40;101101.66;5113926;28;20036;-71
2021/08/14 08:48:20;;;;;;;9.90;2.50;;;;;;;36.14;27.34;101095.44;5113596;27;20046;-72
2021/08/14 08:50:48;;;;;;;7.85;2.35;;;;;;;36.05;26.77;101091.59;5114074;27;20045;-72
2021/08/14 08:53:18;;;;;;;8.07;2.85;;;;;;;36.03;26.75;101088.13;5112303;28;20050;-72
2021/08/14 08:55:47;;;;;;;7.00;2.33;;;;;;;36.16;26.48;101076.94;5113515;28;20043;-71
2021/08/14 08:58:15;;;;;;;7.68;2.85;;;;;;;36.20;26.41;101073.81;5113431;28;20146;-73
2021/08/14 09:00:42;;;;;;;11.30;3.10;;;;;;;36.26;27.25;101073.28;5113388;27;20039;-72
2021/08/14 09:03:13;;;;;;;7.55;2.80;;;;;;;36.46;27.16;101065.16;5113093;27;20044;-72
2021/08/14 09:05:49;;;;;;;9.77;2.90;;;;;;;36.46;27.92;101065.16;5113240;28;20035;-71
2021/08/14 09:08:19;;;;;;;9.65;2.97;;;;;;;36.14;29.15;101067.94;5113628;28;20402;-72
2021/08/14 09:10:47;;;;;;;9.88;2.67;;;;;;;36.07;29.84;101077.72;5107243;28;20039;-72
2021/08/14 09:13:16;;;;;;;10.20;2.90;;;;;;;36.30;30.31;101069.25;5113525;28;20044;-71
2021/08/14 09:15:44;;;;;;;8.38;2.92;;;;;;;36.28;30.90;101063.03;5113447;27;20040;-70
2021/08/14 09:18:13;;;;;;;12.43;3.05;;;;;;;36.38;30.95;101062.19;5113223;27;20487;-72
2021/08/14 09:20:53;;;;;;;12.40;3.45;;;;;;;36.51;30.82;101063.72;5113120;28;20382;-72
2021/08/14 09:23:23;;;;;;;10.63;3.88;;;;;;;36.42;31.50;101060.94;5113204;27;20044;-71
2021/08/14 09:25:51;;;;;;;15.40;3.42;;;;;;;36.31;31.64;101065.47;5110798;28;20040;-71
2021/08/14 09:28:28;;;;;;;12.88;3.90;;;;;;;36.26;31.87;101065.03;5112314;27;20058;-72
2021/08/14 09:30:58;;;;;;;15.13;3.80;;;;;;;36.44;31.76;101053.41;5112869;27;20044;-73
2021/08/14 09:33:28;;;;;;;10.07;3.35;;;;;;;36.44;31.43;101056.16;5113367;27;20479;-71
2021/08/14 09:36:00;;;;;;;8.38;2.90;;;;;;;36.44;31.76;101056.16;5111314;28;20050;-71
2021/08/14 09:38:41;;;;;;;13.77;3.58;;;;;;;36.64;31.68;101055.25;5112915;28;20070;-71
2021/08/14 09:41:10;;;;;;;9.70;2.85;;;;;;;36.55;31.86;101042.34;5111630;28;20046;-71
2021/08/14 09:43:37;;;;;;;16.05;3.60;;;;;;;36.56;32.08;101047.69;5112583;28;20047;-71
2021/08/14 09:46:05;;;;;;;10.27;2.88;;;;;;;36.50;32.05;101055.59;5113060;28;20040;-72
2021/08/14 09:48:42;;;;;;;12.90;3.30;;;;;;;36.39;32.42;101044.69;5111459;28;20380;-71
2021/08/14 09:51:28;;;;;;;13.32;3.72;;;;;;;36.52;32.55;101042.59;5112402;27;20044;-71
2021/08/14 09:54:07;;;;;;;16.75;3.83;;;;;;;36.44;32.40;101040.50;5112159;28;20054;-70
2021/08/14 09:56:36;;;;;;;14.45;3.78;;;;;;;36.55;32.67;101045.97;5112053;28;20040;-70
2021/08/14 09:59:04;;;;;;;11.88;3.10;;;;;;;36.60;33.01;101045.53;5112676;28;20380;-71
2021/08/14 10:01:33;;;;;;;12.40;3.53;;;;;;;36.56;33.13;101038.56;5112550;28;20066;-72
2021/08/14 10:04:01;;;;;;;13.80;4.90;;;;;;;35.84;34.22;101042.06;5111872;28;20039;-71
2021/08/14 10:06:29;;;;;;;9.15;3.97;;;;;;;35.63;34.56;101027.41;5112391;28;20070;-71
2021/08/14 10:08:57;;;;;;;13.38;3.53;;;;;;;35.33;34.95;101024.50;5111862;28;20047;-72
2021/08/14 10:11:26;;;;;;;13.07;3.30;;;;;;;35.35;35.17;101033.50;5111706;28;20058;-71
2021/08/14 10:13:53;;;;;;;11.45;4.10;;;;;;;35.61;34.80;101032.16;5111869;27;20053;-71
2021/08/14 10:16:21;;;;;;;15.57;3.30;;;;;;;35.53;35.07;101035.53;5110095;27;20056;-71
2021/08/14 10:18:48;;;;;;;15.85;3.70;;;;;;;35.41;35.23;101036.59;5111688;27;20059;-71
2021/08/14 10:21:16;;;;;;;13.60;3.80;;;;;;;35.14;35.57;101027.88;5112480;28;20036;-72
2021/08/14 10:23:46;;;;;;;14.45;3.10;;;;;;;34.96;35.82;101037.63;5112151;28;20368;-72
2021/08/14 10:26:17;;;;;;;15.20;3.60;;;;;;;35.06;36.17;101017.53;5112150;28;20093;-72
2021/08/14 10:28:49;;;;;;;15.98;3.88;;;;;;;35.15;35.97;101022.25;5109995;28;20043;-72
2021/08/14 10:31:44;;;;;;;16.27;3.60;;;;;;;35.27;35.72;101022.25;5112311;28;20046;-71
2021/08/14 10:34:44;;;;;;;11.65;3.63;;;;;;;35.16;35.74;101020.41;5102516;27;20100;-71
2021/08/14 10:37:34;;;;;;;13.65;3.80;;;;;;;34.83;36.17;101028.66;5112008;28;20035;-71
2021/08/14 10:40:01;;;;;;;11.18;3.30;;;;;;;34.93;36.48;101022.28;5112035;28;20075;-71
2021/08/14 10:42:59;;;;;;;11.77;3.53;;;;;;;35.05;35.80;101020.41;5112128;28;20395;-73
2021/08/14 10:45:36;;;;;;;12.55;3.25;;;;;;;34.98;35.63;101031.03;5065810;28;20039;-71
2021/08/14 10:48:05;;;;;;;11.98;3.63;;;;;;;35.00;35.54;101022.66;5111624;28;20062;-69
2021/08/14 10:50:55;;;;;;;9.93;3.30;;;;;;;35.02;35.43;101018.78;5112292;28;20532;-71
2021/08/14 10:53:23;;;;;;;8.82;3.95;;;;;;;34.92;35.13;101027.94;5109048;28;20043;-72
2021/08/14 10:55:53;;;;;;;10.43;3.60;;;;;;;34.58;35.53;101027.00;5111230;28;20047;-71
2021/08/14 10:58:24;;;;;;;12.38;3.63;;;;;;;34.61;35.64;101033.09;5110291;28;20055;-72
2021/08/14 11:00:54;;;;;;;12.48;4.07;;;;;;;35.02;35.34;101029.78;5111497;28;20043;-73
2021/08/14 11:03:31;;;;;;;16.20;7.25;;;;;;;35.28;35.08;101027.63;5111283;28;20044;-73
2021/08/14 11:06:26;;;;;;;13.82;3.58;;;;;;;35.41;34.57;101011.88;5111873;28;20053;-71
2021/08/14 11:09:30;;;;;;;8.55;3.75;;;;;;;35.47;34.34;101029.69;5111259;28;20040;-71
2021/08/14 11:11:59;;;;;;;9.10;3.70;;;;;;;35.49;34.66;101023.09;5110677;28;20384;-72
2021/08/14 11:14:39;;;;;;;10.55;3.28;;;;;;;35.75;35.22;101028.25;5110812;28;20036;-71
2021/08/14 11:17:09;;;;;;;12.93;3.65;;;;;;;35.81;35.29;101014.00;5110559;28;20043;-71
2021/08/14 11:19:58;;;;;;;12.13;3.70;;;;;;;35.98;35.02;101018.88;5110802;28;20039;-70
2021/08/14 11:22:33;;;;;;;10.18;3.50;;;;;;;35.54;34.91;101015.31;5105373;28;20050;-70
2021/08/14 11:25:04;;;;;;;12.52;3.42;;;;;;;35.43;35.43;101018.13;5111290;28;20051;-72
2021/08/14 11:27:33;;;;;;;14.55;4.05;;;;;;;35.56;35.41;101018.81;5109915;28;20379;-70
2021/08/14 11:30:03;;;;;;;14.05;3.80;;;;;;;35.55;35.25;101019.81;5111092;28;20050;-76
2021/08/14 11:32:33;;;;;;;10.40;3.30;;;;;;;35.34;35.41;101013.38;5111228;28;20042;-72